Time;durP1;ratioP1;P1;durP2;ratioP2;P2;SDS_P1;SDS_P2;PMS_P1;PMS_P2;Temp;Humidity;BMP_temperature;BMP_pressure;BME280_temperature;BME280_humidity;BME280_pressure;Samples;Min_cycle;Max_cycle;Signal;HPM_P1;HPM_P2
2022/05/25 00:00:32;;;;;;;8.82;4.50;;;;;;;;;;5081001;28;20054;-73
2022/05/25 00:02:58;;;;;;;5.60;4.03;;;;;;;;;;5082297;28;20051;-73
2022/05/25 00:05:24;;;;;;;5.70;4.13;;;;;;;;;;5079105;28;20025;-74
2022/05/25 00:07:50;;;;;;;8.80;4.05;;;;;;;;;;5078739;28;20056;-73
2022/05/25 00:10:16;;;;;;;8.48;4.63;;;;;;;;;;5075738;28;20067;-73
2022/05/25 00:12:43;;;;;;;5.78;4.35;;;;;;;;;;5080012;28;20080;-73
2022/05/25 00:15:11;;;;;;;7.13;4.35;;;;;;;;;;5075922;28;20384;-80
2022/05/25 00:17:37;;;;;;;9.43;5.50;;;;;;;;;;5074324;28;20067;-73
2022/05/25 00:20:03;;;;;;;7.85;5.15;;;;;;;;;;5073231;28;20024;-73
2022/05/25 00:22:39;;;;;;;11.48;5.22;;;;;;;;;;5073728;28;20095;-73
2022/05/25 00:25:05;;;;;;;8.82;4.82;;;;;;;;;;5075306;28;20102;-73
2022/05/25 00:27:32;;;;;;;12.88;4.95;;;;;;;;;;5078216;28;20504;-73
2022/05/25 00:29:58;;;;;;;8.85;4.78;;;;;;;;;;5076044;28;20028;-73
2022/05/25 00:32:24;;;;;;;8.02;4.82;;;;;;;;;;5077219;28;20028;-73
2022/05/25 00:34:51;;;;;;;8.02;4.57;;;;;;;;;;5079766;28;20035;-73
2022/05/25 00:37:17;;;;;;;5.90;4.45;;;;;;;;;;5080741;28;20107;-73
2022/05/25 00:39:43;;;;;;;6.35;4.60;;;;;;;;;;5080450;28;20576;-73
2022/05/25 00:42:09;;;;;;;8.27;4.50;;;;;;;;;;5078106;28;20028;-73
2022/05/25 00:44:35;;;;;;;8.73;4.78;;;;;;;;;;5081422;28;20035;-73
2022/05/25 00:47:02;;;;;;;7.20;4.03;;;;;;;;;;5078388;28;20043;-73
2022/05/25 00:49:33;;;;;;;8.68;4.35;;;;;;;;;;5080300;28;20019;-73
2022/05/25 00:52:02;;;;;;;12.35;4.82;;;;;;;;;;5072558;28;20486;-73
2022/05/25 00:54:29;;;;;;;13.10;5.78;;;;;;;;;;5082138;28;20024;-73
2022/05/25 00:56:59;;;;;;;7.13;4.90;;;;;;;;;;5080001;28;20464;-73
2022/05/25 00:59:27;;;;;;;10.27;4.32;;;;;;;;;;5081325;28;20031;-73
2022/05/25 01:01:54;;;;;;;7.75;4.07;;;;;;;;;;5080529;28;20028;-73
2022/05/25 01:04:20;;;;;;;8.98;4.25;;;;;;;;;;5079262;28;20020;-73
2022/05/25 01:06:53;;;;;;;8.30;4.55;;;;;;;;;;5074501;28;20032;-72
2022/05/25 01:09:34;;;;;;;10.18;4.80;;;;;;;;;;5072954;28;20056;-73
2022/05/25 01:12:12;;;;;;;6.45;4.80;;;;;;;;;;5074593;28;20451;-73
2022/05/25 01:15:01;;;;;;;10.05;4.43;;;;;;;;;;5070946;28;20105;-75
2022/05/25 01:17:40;;;;;;;10.13;4.93;;;;;;;;;;5068834;28;20534;-73
2022/05/25 01:20:09;;;;;;;9.77;5.20;;;;;;;;;;5072759;28;20624;-76
2022/05/25 01:22:53;;;;;;;8.82;5.07;;;;;;;;;;5073394;28;20564;-74
2022/05/25 01:25:28;;;;;;;8.38;5.15;;;;;;;;;;5072499;28;20053;-73
2022/05/25 01:27:55;;;;;;;9.10;5.15;;;;;;;;;;5074313;28;20030;-72
2022/05/25 01:30:22;;;;;;;8.73;4.63;;;;;;;;;;5071757;28;20033;-73
2022/05/25 01:33:01;;;;;;;5.78;4.63;;;;;;;;;;5075227;28;20028;-72
2022/05/25 01:35:42;;;;;;;8.48;4.40;;;;;;;;;;5075221;28;20028;-73
2022/05/25 01:38:18;;;;;;;7.10;4.43;;;;;;;;;;5075352;28;20035;-73
2022/05/25 01:40:47;;;;;;;8.43;4.65;;;;;;;;;;5070167;28;20070;-77
2022/05/25 01:43:18;;;;;;;6.68;4.38;;;;;;;;;;5070961;28;20047;-73
2022/05/25 01:45:47;;;;;;;12.30;5.05;;;;;;;;;;5070522;28;20036;-73
2022/05/25 01:48:13;;;;;;;7.72;5.30;;;;;;;;;;5074575;28;20020;-73
2022/05/25 01:50:44;;;;;;;6.72;4.15;;;;;;;;;;5073007;28;20024;-74
2022/05/25 01:53:11;;;;;;;5.78;4.20;;;;;;;;;;5075276;28;20051;-73
2022/05/25 01:55:40;;;;;;;9.40;3.90;;;;;;;;;;5075072;28;20576;-74
2022/05/25 01:58:08;;;;;;;7.30;3.65;;;;;;;;;;5074843;28;20031;-73
2022/05/25 02:00:36;;;;;;;8.18;3.80;;;;;;;;;;5072262;28;20483;-75
2022/05/25 02:05:53;;;;;;;7.53;3.80;;;;;;;;;;5071584;28;20397;-73
2022/05/25 02:08:41;;;;;;;6.43;3.80;;;;;;;;;;5076188;28;20020;-76
2022/05/25 02:11:07;;;;;;;5.63;3.70;;;;;;;;;;5076949;28;20044;-72
2022/05/25 02:13:33;;;;;;;10.43;3.80;;;;;;;;;;5072564;28;20594;-73
2022/05/25 02:16:18;;;;;;;9.02;4.15;;;;;;;;;;5075872;28;20035;-73
2022/05/25 02:18:58;;;;;;;9.93;3.67;;;;;;;;;;5074393;28;20107;-73
2022/05/25 02:21:32;;;;;;;11.85;3.47;;;;;;;;;;5075448;28;20044;-73
2022/05/25 02:24:01;;;;;;;6.63;3.55;;;;;;;;;;5075711;28;20150;-73
2022/05/25 02:26:33;;;;;;;6.20;3.33;;;;;;;;;;5073793;28;20123;-73
2022/05/25 02:28:59;;;;;;;;;;;;;;;;;;5078839;28;20016;-73
2022/05/25 02:31:27;;;;;;;6.38;3.10;;;;;;;;;;5071290;28;19905;-73
2022/05/25 02:33:56;;;;;;;6.80;3.75;;;;;;;;;;5073411;28;20380;-72
2022/05/25 02:36:22;;;;;;;5.88;3.15;;;;;;;;;;5077477;28;20031;-73
2022/05/25 02:38:49;;;;;;;9.15;3.83;;;;;;;;;;5073451;28;20037;-73
2022/05/25 02:41:26;;;;;;;9.55;3.38;;;;;;;;;;5073641;28;20020;-72
2022/05/25 02:43:52;;;;;;;6.97;3.20;;;;;;;;;;5075212;28;20030;-73
2022/05/25 02:46:18;;;;;;;4.82;2.70;;;;;;;;;;5075922;28;20042;-73
2022/05/25 02:48:44;;;;;;;7.65;3.33;;;;;;;;;;5080108;28;20016;-73
2022/05/25 02:51:10;;;;;;;7.55;2.65;;;;;;;;;;5075709;28;20034;-73
2022/05/25 02:53:36;;;;;;;6.80;3.05;;;;;;;;;;5077424;28;20408;-74
2022/05/25 02:56:03;;;;;;;8.55;2.65;;;;;;;;;;5077057;28;20032;-73
2022/05/25 02:58:29;;;;;;;6.35;3.00;;;;;;;;;;5072211;28;20027;-73
2022/05/25 03:00:56;;;;;;;5.95;2.85;;;;;;;;;;5071581;28;20522;-73
2022/05/25 03:03:22;;;;;;;8.52;3.08;;;;;;;;;;5075786;28;20039;-72
2022/05/25 03:05:48;;;;;;;7.70;2.60;;;;;;;;;;5074584;28;20389;-73
2022/05/25 03:08:14;;;;;;;8.75;3.20;;;;;;;;;;5065870;28;20032;-72
2022/05/25 03:10:41;;;;;;;4.85;2.72;;;;;;;;;;5071405;28;20514;-73
2022/05/25 03:13:07;;;;;;;9.98;3.15;;;;;;;;;;5073816;28;20542;-73
2022/05/25 03:15:34;;;;;;;6.85;2.92;;;;;;;;;;5076371;28;20029;-73
2022/05/25 03:18:00;;;;;;;7.00;2.95;;;;;;;;;;5069041;28;20618;-73
2022/05/25 03:20:26;;;;;;;6.75;2.92;;;;;;;;;;5065510;28;20028;-73
2022/05/25 03:22:53;;;;;;;11.07;3.22;;;;;;;;;;5060175;28;20033;-74
2022/05/25 03:25:19;;;;;;;8.50;3.60;;;;;;;;;;5059064;28;20044;-73
2022/05/25 03:27:45;;;;;;;5.47;2.85;;;;;;;;;;5059979;28;20056;-73
2022/05/25 03:30:13;;;;;;;6.55;3.65;;;;;;;;;;5059335;28;20568;-73
2022/05/25 03:32:40;;;;;;;8.52;3.33;;;;;;;;;;5066737;28;20024;-73
2022/05/25 03:35:06;;;;;;;9.00;2.97;;;;;;;;;;5080011;28;20021;-73
2022/05/25 03:37:33;;;;;;;5.70;2.67;;;;;;;;;;5078479;28;20613;-73
2022/05/25 03:39:59;;;;;;;8.07;3.08;;;;;;;;;;5077912;28;20028;-73
2022/05/25 03:42:25;;;;;;;7.30;2.63;;;;;;;;;;5080115;28;20024;-73
2022/05/25 03:44:52;;;;;;;10.38;3.00;;;;;;;;;;5079526;28;20092;-73
2022/05/25 03:47:18;;;;;;;7.80;2.60;;;;;;;;;;5077956;28;20024;-75
2022/05/25 03:49:44;;;;;;;7.00;3.10;;;;;;;;;;5079650;28;20095;-73
2022/05/25 03:52:11;;;;;;;8.43;2.85;;;;;;;;;;5079691;28;20044;-73
2022/05/25 03:54:37;;;;;;;6.53;3.05;;;;;;;;;;5079707;28;20027;-73
2022/05/25 03:57:04;;;;;;;5.93;2.58;;;;;;;;;;5078277;28;20024;-74
2022/05/25 03:59:31;;;;;;;4.10;2.53;;;;;;;;;;5077898;28;20032;-74
2022/05/25 04:01:57;;;;;;;14.63;3.90;;;;;;;;;;5059025;28;20028;-72
2022/05/25 04:04:23;;;;;;;11.13;4.57;;;;;;;;;;5059243;28;20025;-73
2022/05/25 04:06:50;;;;;;;7.53;4.38;;;;;;;;;;5059216;28;20348;-73
2022/05/25 04:09:16;;;;;;;12.50;4.55;;;;;;;;;;5059569;28;21017;-73
2022/05/25 04:11:42;;;;;;;6.82;3.60;;;;;;;;;;5071381;28;20035;-73
2022/05/25 04:14:09;;;;;;;6.32;3.20;;;;;;;;;;5070049;28;20080;-73
2022/05/25 04:16:35;;;;;;;6.40;3.25;;;;;;;;;;5079637;28;20051;-73
2022/05/25 04:19:02;;;;;;;7.28;2.97;;;;;;;;;;5077038;28;20023;-73
2022/05/25 04:21:28;;;;;;;9.98;3.00;;;;;;;;;;5077560;28;20036;-73
2022/05/25 04:23:54;;;;;;;9.02;2.95;;;;;;;;;;5080453;28;20109;-72
2022/05/25 04:26:20;;;;;;;10.45;3.20;;;;;;;;;;5081248;28;20040;-73
2022/05/25 04:28:46;;;;;;;5.40;2.65;;;;;;;;;;5081219;28;20020;-73
2022/05/25 04:31:12;;;;;;;7.18;2.88;;;;;;;;;;5080336;28;20028;-73
2022/05/25 04:33:40;;;;;;;9.48;3.00;;;;;;;;;;5081288;28;20601;-73
2022/05/25 04:36:06;;;;;;;5.15;3.05;;;;;;;;;;5072831;28;20036;-73
2022/05/25 04:38:33;;;;;;;6.60;2.70;;;;;;;;;;5071676;28;20055;-73
2022/05/25 04:40:59;;;;;;;7.75;2.53;;;;;;;;;;5079246;28;20028;-74
2022/05/25 04:43:26;;;;;;;10.65;3.03;;;;;;;;;;5077897;28;20065;-74
2022/05/25 04:45:53;;;;;;;6.38;2.55;;;;;;;;;;5082143;28;20130;-73
2022/05/25 04:48:21;;;;;;;7.05;2.90;;;;;;;;;;5083281;28;20036;-74
2022/05/25 04:50:47;;;;;;;5.00;3.13;;;;;;;;;;5081801;28;20028;-74
2022/05/25 04:53:15;;;;;;;6.88;3.30;;;;;;;;;;5061362;28;20078;-73
2022/05/25 04:58:27;;;;;;;8.75;3.05;;;;;;;;;;5062425;28;20036;-73
2022/05/25 05:00:53;;;;;;;5.28;3.17;;;;;;;;;;5062170;28;20031;-75
2022/05/25 05:03:20;;;;;;;5.25;3.35;;;;;;;;;;5060076;28;20021;-73
2022/05/25 05:05:47;;;;;;;4.72;3.13;;;;;;;;;;5072363;28;20040;-74
2022/05/25 05:08:13;;;;;;;8.52;3.67;;;;;;;;;;5082464;28;20021;-73
2022/05/25 05:10:40;;;;;;;5.63;3.30;;;;;;;;;;5082232;28;20031;-74
2022/05/25 05:13:07;;;;;;;8.55;4.00;;;;;;;;;;5079324;28;20032;-73
2022/05/25 05:15:37;;;;;;;11.60;4.47;;;;;;;;;;5081900;28;20040;-73
2022/05/25 05:18:04;;;;;;;7.88;4.30;;;;;;;;;;5081761;28;20020;-74
2022/05/25 05:20:30;;;;;;;9.10;4.32;;;;;;;;;;5074471;28;20452;-74
2022/05/25 05:22:56;;;;;;;5.13;3.40;;;;;;;;;;5064289;28;20036;-74
2022/05/25 05:25:22;;;;;;;6.72;2.92;;;;;;;;;;5067483;28;20048;-73
2022/05/25 05:27:49;;;;;;;7.90;3.00;;;;;;;;;;5072001;28;20086;-74
2022/05/25 05:30:17;;;;;;;8.65;3.35;;;;;;;;;;5075156;28;20443;-73
2022/05/25 05:32:43;;;;;;;5.32;3.10;;;;;;;;;;5062140;28;20025;-73
2022/05/25 05:35:10;;;;;;;6.85;2.92;;;;;;;;;;5063339;28;20032;-73
2022/05/25 05:37:42;;;;;;;6.35;3.13;;;;;;;;;;5071668;28;20025;-73
2022/05/25 05:40:09;;;;;;;7.80;4.00;;;;;;;;;;5063487;28;20028;-79
2022/05/25 05:42:40;;;;;;;12.18;3.92;;;;;;;;;;5064246;28;20037;-78
2022/05/25 05:45:09;;;;;;;9.30;3.83;;;;;;;;;;5060825;28;20290;-77
2022/05/25 05:47:41;;;;;;;6.13;3.17;;;;;;;;;;5058306;28;20054;-78
2022/05/25 05:50:08;;;;;;;6.85;3.40;;;;;;;;;;5064879;28;21716;-78
2022/05/25 05:52:35;;;;;;;5.53;3.28;;;;;;;;;;5068202;28;20036;-78
2022/05/25 05:55:02;;;;;;;8.18;3.28;;;;;;;;;;5067582;28;20038;-77
2022/05/25 05:57:28;;;;;;;10.45;4.35;;;;;;;;;;5078572;28;20032;-74
2022/05/25 05:59:54;;;;;;;11.77;4.82;;;;;;;;;;5079682;28;20062;-77
2022/05/25 06:02:20;;;;;;;12.00;3.70;;;;;;;;;;5076702;28;20024;-81
2022/05/25 06:04:47;;;;;;;10.13;3.75;;;;;;;;;;5079197;28;20462;-82
2022/05/25 06:07:13;;;;;;;6.25;3.42;;;;;;;;;;5078847;28;20046;-78
2022/05/25 06:09:39;;;;;;;9.98;3.58;;;;;;;;;;5076733;28;20380;-77
2022/05/25 06:12:05;;;;;;;6.07;3.42;;;;;;;;;;5080862;28;20036;-78
2022/05/25 06:14:31;;;;;;;5.13;3.30;;;;;;;;;;5072704;28;20028;-77
2022/05/25 06:19:42;;;;;;;8.45;3.20;;;;;;;;;;5059339;28;20040;-74
2022/05/25 06:22:10;;;;;;;8.82;3.53;;;;;;;;;;5060379;28;20028;-76
2022/05/25 06:24:43;;;;;;;7.13;3.08;;;;;;;;;;5060622;28;20093;-75
2022/05/25 06:27:11;;;;;;;5.32;3.58;;;;;;;;;;5060919;28;20067;-76
2022/05/25 06:29:43;;;;;;;9.57;3.92;;;;;;;;;;5061280;28;20574;-75
2022/05/25 06:32:09;;;;;;;9.55;4.60;;;;;;;;;;5059368;28;20074;-77
2022/05/25 06:34:36;;;;;;;9.15;4.70;;;;;;;;;;5061202;28;20024;-77
2022/05/25 06:37:03;;;;;;;12.10;4.90;;;;;;;;;;5063570;28;20480;-77
2022/05/25 06:39:33;;;;;;;11.82;4.95;;;;;;;;;;5081064;28;20073;-77
2022/05/25 06:42:00;;;;;;;11.07;4.55;;;;;;;;;;5073106;28;20830;-79
2022/05/25 06:44:26;;;;;;;6.32;4.07;;;;;;;;;;5071580;28;20033;-75
2022/05/25 06:46:52;;;;;;;7.63;3.95;;;;;;;;;;5071063;28;20597;-79
2022/05/25 06:49:18;;;;;;;7.80;3.83;;;;;;;;;;5080528;28;20024;-76
2022/05/25 06:51:45;;;;;;;8.55;4.03;;;;;;;;;;5073011;28;20031;-76
2022/05/25 06:54:13;;;;;;;6.53;3.35;;;;;;;;;;5073731;28;20114;-77
2022/05/25 06:56:39;;;;;;;23.23;5.22;;;;;;;;;;5073337;28;20469;-77
2022/05/25 06:59:06;;;;;;;14.73;5.28;;;;;;;;;;5069453;28;20032;-75
2022/05/25 07:01:33;;;;;;;9.32;5.50;;;;;;;;;;5063057;28;20031;-77
2022/05/25 07:03:59;;;;;;;11.18;5.80;;;;;;;;;;5075972;28;20028;-75
2022/05/25 07:06:25;;;;;;;14.88;6.32;;;;;;;;;;5082474;28;20066;-75
2022/05/25 07:08:52;;;;;;;9.75;5.43;;;;;;;;;;5071708;28;20028;-77
2022/05/25 07:11:18;;;;;;;8.27;4.57;;;;;;;;;;5060149;28;20063;-75
2022/05/25 07:13:45;;;;;;;10.07;4.30;;;;;;;;;;5075012;28;20032;-75
2022/05/25 07:16:13;;;;;;;9.60;4.18;;;;;;;;;;5071074;28;20032;-74
2022/05/25 07:18:39;;;;;;;9.73;4.20;;;;;;;;;;5069007;28;20103;-76
2022/05/25 07:21:11;;;;;;;9.80;4.63;;;;;;;;;;5074770;28;20028;-75
2022/05/25 07:23:38;;;;;;;14.52;5.07;;;;;;;;;;5069621;28;20028;-75
2022/05/25 07:26:06;;;;;;;11.50;5.05;;;;;;;;;;5067401;28;20084;-76
2022/05/25 07:28:33;;;;;;;11.88;4.65;;;;;;;;;;5077402;28;20088;-75
2022/05/25 07:31:02;;;;;;;9.45;4.65;;;;;;;;;;5069855;28;20027;-75
2022/05/25 07:33:28;;;;;;;8.55;4.72;;;;;;;;;;5068996;28;20024;-73
2022/05/25 07:35:55;;;;;;;11.23;4.80;;;;;;;;;;5073742;28;20059;-77
2022/05/25 07:38:21;;;;;;;7.60;4.53;;;;;;;;;;5074097;28;20047;-76
2022/05/25 07:40:48;;;;;;;9.77;3.50;;;;;;;;;;5071711;28;20085;-76
2022/05/25 07:43:19;;;;;;;8.65;3.70;;;;;;;;;;5078361;28;20000;-76
2022/05/25 07:45:46;;;;;;;8.90;4.10;;;;;;;;;;5076740;28;20068;-76
2022/05/25 07:48:12;;;;;;;11.25;4.00;;;;;;;;;;5077911;28;20115;-77
2022/05/25 07:50:38;;;;;;;8.88;3.88;;;;;;;;;;5078606;28;20103;-76
2022/05/25 07:53:55;;;;;;;11.40;4.38;;;;;;;;;;5077634;28;20028;-77
2022/05/25 07:55:52;;;;;;;9.98;3.75;;;;;;;;;;5064833;28;20633;-76
2022/05/25 07:58:18;;;;;;;11.43;3.50;;;;;;;;;;5061032;28;20039;-76
2022/05/25 08:00:44;;;;;;;6.70;3.65;;;;;;;;;;5061451;28;20621;-77
2022/05/25 08:05:59;;;;;;;12.45;3.88;;;;;;;;;;5057771;28;20043;-77
2022/05/25 08:08:25;;;;;;;9.13;3.28;;;;;;;;;;5059232;28;20040;-77
2022/05/25 08:10:53;;;;;;;8.85;3.25;;;;;;;;;;5073333;28;20092;-76
2022/05/25 08:13:20;;;;;;;11.38;3.20;;;;;;;;;;5079159;28;20024;-76
2022/05/25 08:15:46;;;;;;;10.57;3.45;;;;;;;;;;5077783;28;20016;-77
2022/05/25 08:18:13;;;;;;;11.45;3.50;;;;;;;;;;5072428;28;20030;-76
2022/05/25 08:20:39;;;;;;;5.65;3.25;;;;;;;;;;5071180;28;20019;-76
2022/05/25 08:23:09;;;;;;;8.73;3.65;;;;;;;;;;5079865;28;20084;-77
2022/05/25 08:25:35;;;;;;;6.05;3.03;;;;;;;;;;5083034;28;20945;-76
2022/05/25 08:28:02;;;;;;;7.38;3.88;;;;;;;;;;5083888;28;20101;-77
2022/05/25 08:30:29;;;;;;;9.85;4.20;;;;;;;;;;5080997;28;20099;-75
2022/05/25 08:32:55;;;;;;;12.13;3.50;;;;;;;;;;5081686;28;20059;-75
2022/05/25 08:35:21;;;;;;;13.18;4.38;;;;;;;;;;5073047;28;20024;-76
2022/05/25 08:37:47;;;;;;;11.23;3.90;;;;;;;;;;5081193;28;20055;-75
2022/05/25 08:40:15;;;;;;;5.75;3.35;;;;;;;;;;5078849;28;20028;-76
2022/05/25 08:42:52;;;;;;;12.18;3.60;;;;;;;;;;5077775;28;20032;-76
2022/05/25 08:45:19;;;;;;;14.15;3.88;;;;;;;;;;5084724;28;20097;-77
2022/05/25 08:47:51;;;;;;;7.05;2.95;;;;;;;;;;5084456;28;20024;-77
2022/05/25 08:50:17;;;;;;;6.07;3.55;;;;;;;;;;5064656;28;20504;-76
2022/05/25 08:52:44;;;;;;;7.80;3.53;;;;;;;;;;5084320;28;20585;-75
2022/05/25 08:55:11;;;;;;;11.02;3.90;;;;;;;;;;5083783;28;20035;-75
2022/05/25 08:57:40;;;;;;;17.25;4.40;;;;;;;;;;5083454;28;20047;-79
2022/05/25 09:00:08;;;;;;;8.57;3.58;;;;;;;;;;5081961;28;20017;-74
2022/05/25 09:02:52;;;;;;;12.70;4.22;;;;;;;;;;5078736;28;20028;-76
2022/05/25 09:05:22;;;;;;;10.05;4.63;;;;;;;;;;5078246;28;20028;-76
2022/05/25 09:07:48;;;;;;;8.85;4.82;;;;;;;;;;5083672;28;20740;-77
2022/05/25 09:10:15;;;;;;;13.98;5.05;;;;;;;;;;5081686;28;20021;-76
2022/05/25 09:12:44;;;;;;;12.70;5.30;;;;;;;;;;5083937;28;20035;-76
2022/05/25 09:15:18;;;;;;;10.68;6.68;;;;;;;;;;5082402;28;20036;-75
2022/05/25 09:17:49;;;;;;;14.63;6.47;;;;;;;;;;5083549;28;20648;-74
2022/05/25 09:20:17;;;;;;;13.63;6.22;;;;;;;;;;5083638;28;20024;-77
2022/05/25 09:22:44;;;;;;;19.63;6.53;;;;;;;;;;5081282;28;20025;-73
2022/05/25 09:25:11;;;;;;;17.85;6.03;;;;;;;;;;5076410;28;20037;-76
2022/05/25 09:27:39;;;;;;;13.23;6.43;;;;;;;;;;5075527;28;20020;-75
2022/05/25 09:30:06;;;;;;;12.73;6.63;;;;;;;;;;5083240;28;20031;-78
2022/05/25 09:32:33;;;;;;;10.95;5.75;;;;;;;;;;5084525;28;20028;-77
2022/05/25 09:35:09;;;;;;;10.73;4.53;;;;;;;;;;5083856;28;20566;-76
2022/05/25 09:37:38;;;;;;;7.95;4.28;;;;;;;;;;5081446;28;20032;-77
2022/05/25 09:40:10;;;;;;;9.05;3.90;;;;;;;;;;5062529;28;20028;-76
2022/05/25 09:42:37;;;;;;;11.40;3.92;;;;;;;;;;5061151;28;20031;-76
2022/05/25 09:45:09;;;;;;;9.35;4.80;;;;;;;;;;5061202;28;20439;-76
2022/05/25 09:47:43;;;;;;;14.27;4.45;;;;;;;;;;5059379;28;20089;-76
2022/05/25 09:50:14;;;;;;;11.75;4.90;;;;;;;;;;5060416;28;20348;-76
2022/05/25 09:52:43;;;;;;;7.25;4.53;;;;;;;;;;5061041;28;20024;-76
2022/05/25 09:55:30;;;;;;;10.55;4.55;;;;;;;;;;5066129;28;20555;-77
2022/05/25 09:57:59;;;;;;;12.80;5.05;;;;;;;;;;5079755;28;20031;-76
2022/05/25 10:00:35;;;;;;;10.30;3.97;;;;;;;;;;5081280;28;20107;-76
2022/05/25 10:03:19;;;;;;;10.43;4.10;;;;;;;;;;5080652;28;20027;-76
2022/05/25 10:06:05;;;;;;;9.23;3.92;;;;;;;;;;5079366;28;20032;-76
2022/05/25 10:08:36;;;;;;;13.15;4.22;;;;;;;;;;5080844;28;20028;-76
2022/05/25 10:11:27;;;;;;;8.20;3.93;;;;;;;;;;5080691;28;20031;-76
2022/05/25 10:13:53;;;;;;;;;;;;;;;;;;5081476;28;20405;-76
2022/05/25 10:16:21;;;;;;;12.40;4.95;;;;;;;;;;5080801;28;19911;-77
2022/05/25 10:18:48;;;;;;;13.82;5.55;;;;;;;;;;5081046;28;20089;-77
2022/05/25 10:21:28;;;;;;;9.68;5.22;;;;;;;;;;5078907;28;20495;-76
2022/05/25 10:23:54;;;;;;;8.55;5.25;;;;;;;;;;5079947;28;20127;-77
2022/05/25 10:26:44;;;;;;;12.45;4.55;;;;;;;;;;5060225;28;20028;-77
2022/05/25 10:29:12;;;;;;;14.55;6.90;;;;;;;;;;5059168;28;20036;-76
2022/05/25 10:37:25;;;;;;;10.10;3.83;;;;;;;;;;5058316;28;20086;-77
2022/05/25 10:39:55;;;;;;;7.82;3.40;;;;;;;;;;5060147;28;20108;-76
2022/05/25 10:42:22;;;;;;;5.88;3.53;;;;;;;;;;5067771;28;20024;-76
2022/05/25 10:44:51;;;;;;;9.35;3.78;;;;;;;;;;5079553;28;20038;-77
2022/05/25 10:47:24;;;;;;;7.43;3.63;;;;;;;;;;5078999;28;20028;-76
2022/05/25 10:49:52;;;;;;;11.35;3.72;;;;;;;;;;5077483;28;20020;-76
2022/05/25 10:52:38;;;;;;;7.10;3.63;;;;;;;;;;5075901;28;20732;-77
2022/05/25 10:55:05;;;;;;;13.35;3.47;;;;;;;;;;5058014;28;20040;-77
2022/05/25 10:57:50;;;;;;;6.75;3.42;;;;;;;;;;5059960;28;20034;-77
2022/05/25 11:00:20;;;;;;;9.68;3.53;;;;;;;;;;5059531;28;20028;-77
2022/05/25 11:02:52;;;;;;;9.35;3.90;;;;;;;;;;5057643;28;20031;-76
2022/05/25 11:05:18;;;;;;;14.85;4.72;;;;;;;;;;5068009;28;20024;-75
2022/05/25 11:07:45;;;;;;;15.50;6.88;;;;;;;;;;5081067;28;20024;-75
2022/05/25 11:10:17;;;;;;;16.05;4.75;;;;;;;;;;5082236;28;20050;-75
2022/05/25 11:13:02;;;;;;;7.78;3.90;;;;;;;;;;5081927;28;20513;-75
2022/05/25 11:15:47;;;;;;;9.15;3.53;;;;;;;;;;5075668;28;20086;-74
2022/05/25 11:18:32;;;;;;;10.88;3.17;;;;;;;;;;5081760;28;20036;-75
2022/05/25 11:21:17;;;;;;;13.15;3.30;;;;;;;;;;5081257;28;20032;-72
2022/05/25 11:24:09;;;;;;;6.78;2.85;;;;;;;;;;5081180;28;20387;-74
2022/05/25 11:26:35;;;;;;;7.88;3.13;;;;;;;;;;5048496;28;20062;-74
2022/05/25 11:29:04;;;;;;;7.72;2.80;;;;;;;;;;5062055;28;20024;-73
2022/05/25 11:31:46;;;;;;;8.98;3.22;;;;;;;;;;5059511;28;20029;-75
2022/05/25 11:34:12;;;;;;;;;;;;;;;;;;5058826;28;20029;-75
2022/05/25 11:36:41;;;;;;;6.93;2.97;;;;;;;;;;5059776;28;19912;-75
2022/05/25 11:39:18;;;;;;;10.10;3.30;;;;;;;;;;5058671;28;20032;-75
2022/05/25 11:41:48;;;;;;;13.75;4.38;;;;;;;;;;5059542;28;20324;-75
2022/05/25 11:44:16;;;;;;;9.18;3.60;;;;;;;;;;5059084;28;20048;-75
2022/05/25 11:46:44;;;;;;;9.07;3.50;;;;;;;;;;5065134;28;20028;-75
2022/05/25 11:49:29;;;;;;;10.45;3.75;;;;;;;;;;5068255;28;20047;-81
2022/05/25 11:51:58;;;;;;;10.38;3.90;;;;;;;;;;5077056;28;20617;-77
2022/05/25 11:54:54;;;;;;;11.75;4.40;;;;;;;;;;5082180;28;20046;-81
2022/05/25 11:57:20;;;;;;;8.02;3.60;;;;;;;;;;5050689;28;20826;-78
2022/05/25 11:59:46;;;;;;;6.82;4.20;;;;;;;;;;5061489;28;20385;-80
2022/05/25 12:02:25;;;;;;;6.90;3.80;;;;;;;;;;5063130;28;20615;-74
2022/05/25 12:05:09;;;;;;;5.80;3.97;;;;;;;;;;5079277;28;20027;-75
2022/05/25 12:07:43;;;;;;;9.60;3.90;;;;;;;;;;5080633;28;20040;-74
2022/05/25 12:10:16;;;;;;;6.57;3.63;;;;;;;;;;5076416;28;20028;-75
2022/05/25 12:13:09;;;;;;;7.15;3.42;;;;;;;;;;5065579;28;20043;-77
2022/05/25 12:15:35;;;;;;;7.22;3.53;;;;;;;;;;5058712;28;20063;-75
2022/05/25 12:18:08;;;;;;;10.25;3.55;;;;;;;;;;5068883;28;20064;-73
2022/05/25 12:20:35;;;;;;;8.75;3.20;;;;;;;;;;5077969;28;20768;-76
2022/05/25 12:23:05;;;;;;;7.18;2.80;;;;;;;;;;5080113;28;20059;-73
2022/05/25 12:25:33;;;;;;;11.10;3.00;;;;;;;;;;5072049;28;20059;-74
2022/05/25 12:28:01;;;;;;;15.60;3.42;;;;;;;;;;5080464;28;20036;-76
2022/05/25 12:30:27;;;;;;;13.20;3.03;;;;;;;;;;5068302;28;20112;-81
2022/05/25 12:32:53;;;;;;;14.15;3.03;;;;;;;;;;5076756;28;20032;-75
2022/05/25 12:35:20;;;;;;;6.97;2.78;;;;;;;;;;5082260;28;20063;-76
2022/05/25 12:37:47;;;;;;;11.90;3.20;;;;;;;;;;5080312;28;20038;-76
2022/05/25 12:40:15;;;;;;;7.47;2.72;;;;;;;;;;5064381;28;20020;-76
2022/05/25 12:42:43;;;;;;;12.15;2.95;;;;;;;;;;5078233;28;20052;-78
2022/05/25 12:48:32;;;;;;;7.53;3.03;;;;;;;;;;5065103;28;20452;-75
2022/05/25 12:50:58;;;;;;;8.75;3.28;;;;;;;;;;5082355;28;20040;-80
2022/05/25 12:53:32;;;;;;;8.25;3.63;;;;;;;;;;5082236;28;20035;-79
2022/05/25 12:55:58;;;;;;;8.52;3.28;;;;;;;;;;5079988;28;20721;-79
2022/05/25 12:58:43;;;;;;;6.80;3.22;;;;;;;;;;5080219;28;20092;-76
2022/05/25 13:01:28;;;;;;;5.22;3.25;;;;;;;;;;5071980;28;20032;-77
2022/05/25 13:03:57;;;;;;;9.80;4.22;;;;;;;;;;5076427;28;20476;-79
2022/05/25 13:06:44;;;;;;;7.57;4.47;;;;;;;;;;5077930;28;20031;-77
2022/05/25 13:09:11;;;;;;;9.93;4.60;;;;;;;;;;5067757;28;20067;-78
2022/05/25 13:11:51;;;;;;;17.20;4.20;;;;;;;;;;5074357;28;20032;-76
2022/05/25 13:14:17;;;;;;;10.73;4.75;;;;;;;;;;5074386;28;20035;-78
2022/05/25 13:16:48;;;;;;;15.00;3.63;;;;;;;;;;5081838;28;20119;-79
2022/05/25 13:19:18;;;;;;;10.83;3.90;;;;;;;;;;5081369;28;20514;-79
2022/05/25 13:21:45;;;;;;;10.27;3.40;;;;;;;;;;5080658;28;20253;-80
2022/05/25 13:24:20;;;;;;;10.32;3.40;;;;;;;;;;5080462;28;20083;-77
2022/05/25 13:26:46;;;;;;;9.70;3.42;;;;;;;;;;5078230;28;20110;-75
2022/05/25 13:29:21;;;;;;;6.53;2.42;;;;;;;;;;5075525;28;20033;-76
2022/05/25 13:31:58;;;;;;;7.43;2.30;;;;;;;;;;5059268;28;20040;-75
2022/05/25 13:34:24;;;;;;;8.75;3.25;;;;;;;;;;5062405;28;20590;-75
2022/05/25 13:36:56;;;;;;;9.55;2.78;;;;;;;;;;5063731;28;20040;-75
2022/05/25 13:39:26;;;;;;;6.97;2.80;;;;;;;;;;5072361;28;20047;-76
2022/05/25 13:42:06;;;;;;;8.32;2.70;;;;;;;;;;5064890;28;20037;-77
2022/05/25 13:44:42;;;;;;;9.10;2.67;;;;;;;;;;5062135;28;20372;-75
2022/05/25 13:47:08;;;;;;;12.88;3.55;;;;;;;;;;5061211;28;20389;-77
2022/05/25 13:49:40;;;;;;;6.57;2.55;;;;;;;;;;5065293;28;20056;-76
2022/05/25 13:52:11;;;;;;;11.80;3.22;;;;;;;;;;5071895;28;20024;-80
2022/05/25 13:54:37;;;;;;;9.40;3.60;;;;;;;;;;5067984;28;20028;-79
2022/05/25 13:57:04;;;;;;;9.75;3.08;;;;;;;;;;5064414;28;20068;-75
2022/05/25 13:59:32;;;;;;;12.98;3.55;;;;;;;;;;5074889;28;20088;-78
2022/05/25 14:02:10;;;;;;;8.00;3.10;;;;;;;;;;5066632;28;20020;-74
2022/05/25 14:04:38;;;;;;;7.20;3.60;;;;;;;;;;5081392;28;20029;-75
2022/05/25 14:07:04;;;;;;;9.32;3.58;;;;;;;;;;5078852;28;20664;-75
2022/05/25 14:12:18;;;;;;;11.77;4.07;;;;;;;;;;5060316;28;20101;-78
2022/05/25 14:14:52;;;;;;;8.60;3.92;;;;;;;;;;5077517;28;20077;-75
2022/05/25 14:17:21;;;;;;;9.05;4.15;;;;;;;;;;5069961;28;20060;-80
2022/05/25 14:19:49;;;;;;;8.02;3.58;;;;;;;;;;5063727;28;20021;-80
2022/05/25 14:22:15;;;;;;;10.50;3.38;;;;;;;;;;5060106;28;20135;-76
2022/05/25 14:24:44;;;;;;;9.45;3.72;;;;;;;;;;5070980;28;20111;-74
2022/05/25 14:27:29;;;;;;;12.38;3.55;;;;;;;;;;5061105;28;20074;-78
2022/05/25 14:29:59;;;;;;;11.25;3.30;;;;;;;;;;5076530;28;20158;-76
2022/05/25 14:32:32;;;;;;;14.18;2.80;;;;;;;;;;5061811;28;20020;-76
2022/05/25 14:35:03;;;;;;;8.45;3.45;;;;;;;;;;5074074;28;20026;-76
2022/05/25 14:37:31;;;;;;;10.57;3.15;;;;;;;;;;5065817;28;20035;-76
2022/05/25 14:39:58;;;;;;;8.95;3.70;;;;;;;;;;5078677;28;20026;-77
2022/05/25 14:42:27;;;;;;;8.27;3.13;;;;;;;;;;5062557;28;20060;-77
2022/05/25 14:44:56;;;;;;;14.70;4.00;;;;;;;;;;5059857;28;20363;-76
2022/05/25 14:47:44;;;;;;;12.32;3.70;;;;;;;;;;5062542;28;20029;-77
2022/05/25 14:50:23;;;;;;;5.70;3.22;;;;;;;;;;5076281;28;20031;-78
2022/05/25 14:52:57;;;;;;;6.60;3.40;;;;;;;;;;5077791;28;20031;-77
2022/05/25 14:55:26;;;;;;;9.25;3.10;;;;;;;;;;5059422;28;20055;-76
2022/05/25 14:58:06;;;;;;;12.30;3.92;;;;;;;;;;5064656;28;20081;-78
2022/05/25 15:00:36;;;;;;;6.83;3.20;;;;;;;;;;5058325;28;20119;-79
2022/05/25 15:03:03;;;;;;;9.35;3.35;;;;;;;;;;5059301;28;20036;-77
2022/05/25 15:05:40;;;;;;;7.47;2.90;;;;;;;;;;5067172;28;20058;-77
2022/05/25 15:08:19;;;;;;;9.68;3.45;;;;;;;;;;5066605;28;20061;-78
2022/05/25 15:10:45;;;;;;;12.85;4.20;;;;;;;;;;5059275;28;20088;-75
2022/05/25 15:13:23;;;;;;;6.43;3.03;;;;;;;;;;5059655;28;20036;-77
2022/05/25 15:18:37;;;;;;;9.55;3.72;;;;;;;;;;5065285;28;20067;-76
2022/05/25 15:21:16;;;;;;;12.88;3.90;;;;;;;;;;5057653;28;20518;-74